Time;durP1;ratioP1;P1;durP2;ratioP2;P2;SDS_P1;SDS_P2;PMS_P1;PMS_P2;Temp;Humidity;BMP_temperature;BMP_pressure;BME280_temperature;BME280_humidity;BME280_pressure;Samples;Min_cycle;Max_cycle;Signal;HPM_P1;HPM_P2
2022/06/15 00:01:13;;;;;;;15.20;9.40;;;;;;;9.51;70.19;99209.71;108477;1271;22542;-79
2022/06/15 00:03:41;;;;;;;16.70;9.50;;;;;;;9.45;70.96;99211.94;108491;1271;22544;-79
2022/06/15 00:06:21;;;;;;;20.30;9.80;;;;;;;9.39;71.34;99212.08;108499;1269;22561;-79
2022/06/15 00:08:52;;;;;;;12.50;8.60;;;;;;;9.30;71.20;99214.09;108481;1271;22546;-79
2022/06/15 00:11:21;;;;;;;15.40;8.70;;;;;;;9.23;71.04;99217.08;108463;1271;22617;-79
2022/06/15 00:13:49;;;;;;;13.20;7.90;;;;;;;9.17;71.14;99212.49;108477;1271;24291;-79
2022/06/15 00:16:18;;;;;;;11.30;6.70;;;;;;;9.18;70.94;99212.64;108523;1271;22537;-79
2022/06/15 00:18:45;;;;;;;10.20;5.80;;;;;;;9.18;71.28;99216.11;108515;1271;22554;-79
2022/06/15 00:21:15;;;;;;;18.70;7.70;;;;;;;9.15;71.71;99218.34;108475;1271;22555;-79
2022/06/15 00:23:43;;;;;;;11.20;7.40;;;;;;;9.09;72.05;99219.16;108465;1271;23416;-79
2022/06/15 00:26:12;;;;;;;11.50;8.50;;;;;;;9.05;71.46;99222.84;108461;1271;23341;-79
2022/06/15 00:28:39;;;;;;;12.70;7.30;;;;;;;9.02;71.33;99220.57;108498;1270;23390;-79
2022/06/15 00:31:06;;;;;;;12.90;7.10;;;;;;;9.04;71.58;99219.59;108490;1269;22675;-79
2022/06/15 00:33:33;;;;;;;11.70;7.30;;;;;;;9.04;72.43;99218.55;108452;1271;22771;-79
2022/06/15 00:36:12;;;;;;;14.40;8.30;;;;;;;9.01;72.42;99218.33;108441;1271;24292;-79
2022/06/15 00:38:42;;;;;;;14.10;8.10;;;;;;;8.97;72.26;99218.88;108638;1271;22607;-78
2022/06/15 00:41:12;;;;;;;12.90;8.20;;;;;;;8.93;72.02;99215.23;108653;1271;23277;-78
2022/06/15 00:44:01;;;;;;;13.70;8.00;;;;;;;8.90;71.69;99212.65;108710;1271;22509;-79
2022/06/15 00:46:34;;;;;;;12.00;7.60;;;;;;;8.91;71.55;99209.32;108684;1271;22547;-79
2022/06/15 00:49:13;;;;;;;12.80;7.10;;;;;;;8.91;72.04;99207.04;108694;1270;22553;-79
2022/06/15 00:51:41;;;;;;;14.60;8.40;;;;;;;8.89;72.48;99202.79;108689;1271;22520;-79
2022/06/15 00:54:09;;;;;;;14.60;8.80;;;;;;;8.84;72.18;99205.98;108670;1270;22578;-79
2022/06/15 00:56:37;;;;;;;28.20;11.10;;;;;;;8.81;72.02;99203.02;108709;1270;22557;-79
2022/06/15 00:59:14;;;;;;;19.60;8.30;;;;;;;8.79;71.98;99202.77;108705;1271;22538;-79
2022/06/15 01:01:41;;;;;;;14.60;6.50;;;;;;;8.79;72.13;99204.98;108706;1271;22547;-79
2022/06/15 01:04:08;;;;;;;26.50;7.90;;;;;;;8.81;72.39;99205.98;108709;1271;25427;-81
2022/06/15 01:06:49;;;;;;;16.00;7.50;;;;;;;8.79;72.90;99207.26;108689;1271;22544;-82
2022/06/15 01:09:29;;;;;;;14.50;8.60;;;;;;;8.75;72.88;99206.11;108681;1269;22566;-81
2022/06/15 01:12:02;;;;;;;14.60;8.50;;;;;;;8.73;72.42;99209.86;108715;1271;22616;-81
2022/06/15 01:14:44;;;;;;;16.10;8.40;;;;;;;8.70;72.07;99209.30;108709;1271;25277;-81
2022/06/15 01:17:23;;;;;;;17.20;8.20;;;;;;;8.68;71.86;99211.99;108711;1269;22564;-81
2022/06/15 01:20:09;;;;;;;12.60;7.10;;;;;;;8.69;72.09;99210.38;108735;1271;22866;-81
2022/06/15 01:22:38;;;;;;;16.50;7.60;;;;;;;8.67;72.45;99208.04;108698;1269;22527;-81
2022/06/15 01:25:08;;;;;;;18.50;8.00;;;;;;;8.66;72.95;99207.41;108648;1271;22548;-81
2022/06/15 01:27:53;;;;;;;15.40;7.90;;;;;;;8.63;73.06;99204.40;108466;1271;22596;-80
2022/06/15 01:30:30;;;;;;;14.70;7.50;;;;;;;8.60;72.73;99204.73;108484;1269;22518;-80
2022/06/15 01:33:19;;;;;;;15.00;7.50;;;;;;;8.59;72.46;99204.94;108477;1271;22687;-80
2022/06/15 01:36:13;;;;;;;14.20;6.60;;;;;;;8.60;72.71;99201.05;108467;1271;22542;-80
2022/06/15 01:38:46;;;;;;;11.60;6.30;;;;;;;8.60;73.02;99198.80;108477;1271;24264;-80
2022/06/15 01:41:34;;;;;;;14.00;6.80;;;;;;;8.58;73.57;99195.46;108477;1270;22546;-80
2022/06/15 01:44:16;;;;;;;16.20;7.20;;;;;;;8.54;73.28;99191.63;108485;1271;22556;-80
2022/06/15 01:46:47;;;;;;;15.40;7.90;;;;;;;8.50;72.88;99193.77;108451;1271;22560;-77
2022/06/15 01:49:30;;;;;;;16.00;8.00;;;;;;;8.46;72.75;99195.52;108467;1271;22527;-78
2022/06/15 01:52:00;;;;;;;13.50;6.80;;;;;;;8.45;72.56;99192.42;108480;1271;25082;-80
2022/06/15 01:54:35;;;;;;;15.00;7.30;;;;;;;8.42;73.32;99191.52;108482;1270;22543;-79
2022/06/15 01:57:05;;;;;;;14.20;7.50;;;;;;;8.38;73.61;99193.63;108470;1271;22728;-79
2022/06/15 01:59:50;;;;;;;13.30;8.00;;;;;;;8.35;73.47;99192.73;108741;1271;22541;-79
2022/06/15 02:02:29;;;;;;;15.80;8.30;;;;;;;8.32;73.21;99192.52;108449;1270;22537;-78
2022/06/15 02:05:08;;;;;;;13.60;8.00;;;;;;;8.28;73.05;99191.45;108488;1271;22534;-79
2022/06/15 02:08:03;;;;;;;16.90;6.70;;;;;;;8.27;73.11;99197.92;108457;1270;26638;-79
2022/06/15 02:10:39;;;;;;;12.40;7.00;;;;;;;8.25;73.57;99198.36;108437;1270;22539;-79
2022/06/15 02:13:14;;;;;;;18.20;8.30;;;;;;;8.20;74.18;99198.61;108488;1269;22531;-79
2022/06/15 02:15:46;;;;;;;15.00;8.40;;;;;;;8.15;73.95;99198.11;108507;1271;22585;-79
2022/06/15 02:18:18;;;;;;;12.80;8.40;;;;;;;8.15;73.69;99194.30;108481;1270;25270;-79
2022/06/15 02:21:02;;;;;;;16.60;8.70;;;;;;;8.16;73.43;99194.45;108432;1271;22544;-79
2022/06/15 02:23:33;;;;;;;14.70;7.40;;;;;;;8.22;73.51;99197.16;108455;1270;23425;-78
2022/06/15 02:26:01;;;;;;;12.90;6.70;;;;;;;8.26;73.95;99199.19;108440;1271;23343;-78
2022/06/15 02:28:34;;;;;;;18.50;7.80;;;;;;;8.30;74.67;99196.78;108469;1271;25534;-79
2022/06/15 02:31:01;;;;;;;16.70;8.20;;;;;;;8.32;74.51;99198.28;108554;1271;22552;-79
2022/06/15 02:33:31;;;;;;;25.20;8.80;;;;;;;8.32;74.28;99199.46;108506;1271;24272;-79
2022/06/15 02:36:00;;;;;;;14.90;6.80;;;;;;;8.35;73.91;99202.82;108332;1271;22546;-80
2022/06/15 02:38:30;;;;;;;16.40;5.90;;;;;;;8.41;74.26;99199.59;108434;1271;24291;-79
2022/06/15 02:40:58;;;;;;;18.20;6.30;;;;;;;8.46;74.52;99203.48;108624;1271;22534;-79
2022/06/15 02:43:28;;;;;;;14.30;7.20;;;;;;;8.52;75.21;99205.46;108535;1270;22573;-79
2022/06/15 02:45:58;;;;;;;16.40;6.80;;;;;;;8.55;75.12;99203.39;108501;1270;22607;-79
2022/06/15 02:48:26;;;;;;;14.50;7.40;;;;;;;8.59;74.77;99206.16;108477;1268;22537;-79
2022/06/15 02:51:08;;;;;;;17.90;7.70;;;;;;;8.64;74.68;99204.88;108469;1270;24459;-78
2022/06/15 02:53:37;;;;;;;11.20;5.80;;;;;;;8.76;74.48;99202.23;108493;1271;24323;-80
2022/06/15 02:56:07;;;;;;;12.30;6.00;;;;;;;8.85;75.03;99203.86;108530;1270;22588;-79
2022/06/15 02:58:37;;;;;;;13.50;6.90;;;;;;;8.91;75.20;99199.73;108486;1271;22547;-79
2022/06/15 03:01:04;;;;;;;13.60;6.80;;;;;;;8.97;75.05;99204.65;108498;1271;22543;-79
2022/06/15 03:03:33;;;;;;;17.40;7.90;;;;;;;9.01;74.86;99198.20;108491;1270;22547;-79
2022/06/15 03:06:00;;;;;;;12.40;6.90;;;;;;;9.05;74.64;99200.24;108468;1271;22644;-79
2022/06/15 03:08:27;;;;;;;12.90;6.50;;;;;;;9.11;75.09;99199.61;108341;1271;23353;-79
2022/06/15 03:10:54;;;;;;;12.30;7.50;;;;;;;9.14;75.24;99200.67;108462;1271;22541;-79
2022/06/15 03:13:21;;;;;;;14.30;7.20;;;;;;;9.13;75.43;99202.30;108446;1271;22537;-79
2022/06/15 03:15:48;;;;;;;14.10;7.80;;;;;;;9.12;75.41;99200.27;108447;1271;23409;-79
2022/06/15 03:18:15;;;;;;;13.10;8.00;;;;;;;9.11;75.09;99201.85;108478;1270;22687;-79
2022/06/15 03:20:42;;;;;;;14.60;7.90;;;;;;;9.11;74.72;99204.16;108487;1271;22537;-79
2022/06/15 03:23:10;;;;;;;16.50;7.40;;;;;;;9.14;74.59;99208.48;108465;1270;22529;-79
2022/06/15 03:25:37;;;;;;;14.20;8.00;;;;;;;9.18;75.05;99210.55;108433;1271;22543;-79
2022/06/15 03:28:04;;;;;;;17.70;9.00;;;;;;;9.20;75.54;99213.94;108444;1271;22739;-79
2022/06/15 03:30:32;;;;;;;15.40;8.40;;;;;;;9.22;75.31;99217.15;108457;1269;23412;-79
2022/06/15 03:32:58;;;;;;;12.30;9.10;;;;;;;9.24;74.92;99221.52;108437;1271;22537;-79
2022/06/15 03:35:34;;;;;;;13.40;7.80;;;;;;;9.27;74.90;99221.71;108456;1271;22550;-79
2022/06/15 03:38:02;;;;;;;17.70;8.30;;;;;;;9.33;74.80;99225.75;108454;1271;22542;-79
2022/06/15 03:40:30;;;;;;;12.40;7.70;;;;;;;9.38;75.41;99226.89;108442;1271;22553;-79
2022/06/15 03:42:57;;;;;;;18.00;8.60;;;;;;;9.42;75.46;99224.25;108463;1271;22589;-79
2022/06/15 03:45:24;;;;;;;13.90;8.70;;;;;;;9.45;75.18;99224.65;108484;1271;22590;-79
2022/06/15 03:47:55;;;;;;;16.50;10.30;;;;;;;9.49;74.99;99223.93;108481;1271;22554;-79
2022/06/15 03:50:24;;;;;;;18.00;9.50;;;;;;;9.53;74.62;99219.36;108456;1271;22551;-79
2022/06/15 03:52:51;;;;;;;12.90;8.70;;;;;;;9.59;74.68;99213.84;108488;1271;25582;-79
2022/06/15 03:55:19;;;;;;;14.90;8.90;;;;;;;9.69;74.79;99213.30;108471;1271;26526;-79
2022/06/15 03:57:47;;;;;;;15.10;9.20;;;;;;;9.79;74.93;99214.02;108334;1271;22565;-79
2022/06/15 04:00:18;;;;;;;17.60;10.70;;;;;;;9.87;75.24;99210.95;108457;1270;24228;-79
2022/06/15 04:02:45;;;;;;;20.60;11.70;;;;;;;9.96;74.85;99209.27;108445;1271;22533;-79
2022/06/15 04:05:19;;;;;;;18.80;11.60;;;;;;;10.06;74.85;99208.54;108502;1271;22526;-79
2022/06/15 04:10:32;;;;;;;17.60;11.00;;;;;;;10.30;74.36;99206.55;108445;1271;22541;-79
2022/06/15 04:12:59;;;;;;;24.90;12.70;;;;;;;10.46;74.33;99208.61;108443;1270;22582;-79
2022/06/15 04:15:26;;;;;;;24.60;12.80;;;;;;;10.58;75.08;99203.80;108434;1271;23401;-79
2022/06/15 04:17:53;;;;;;;22.40;11.90;;;;;;;10.66;74.94;99205.95;108459;1271;22541;-79
2022/06/15 04:20:32;;;;;;;23.30;13.30;;;;;;;10.75;74.91;99206.14;108497;1271;22575;-79
2022/06/15 04:23:01;;;;;;;22.10;12.80;;;;;;;10.86;74.33;99204.45;108439;1271;24100;-79
2022/06/15 04:25:29;;;;;;;20.10;12.70;;;;;;;10.98;74.11;99200.30;108440;1271;25416;-79
2022/06/15 04:27:57;;;;;;;19.80;11.90;;;;;;;11.12;73.67;99199.46;108489;1271;22550;-79
2022/06/15 04:30:25;;;;;;;18.70;10.10;;;;;;;11.28;73.63;99200.41;108483;1271;22609;-80
2022/06/15 04:32:52;;;;;;;20.70;10.90;;;;;;;11.46;73.69;99194.98;108476;1271;25249;-79
2022/06/15 04:35:19;;;;;;;22.10;13.40;;;;;;;11.66;73.87;99193.08;108449;1271;22687;-79
2022/06/15 04:37:46;;;;;;;24.00;15.00;;;;;;;11.91;74.23;99193.66;108422;1270;25301;-79
2022/06/15 04:40:13;;;;;;;17.40;11.90;;;;;;;12.25;74.59;99197.47;108476;1271;22562;-79
2022/06/15 04:42:42;;;;;;;16.00;8.90;;;;;;;12.65;74.97;99197.70;108485;1271;22552;-80
2022/06/15 04:45:11;;;;;;;15.10;9.20;;;;;;;13.03;74.73;99200.40;108449;1271;22612;-80
2022/06/15 04:47:38;;;;;;;19.10;9.20;;;;;;;13.46;74.73;99197.59;108355;1271;22609;-80
2022/06/15 04:50:07;;;;;;;13.00;9.20;;;;;;;13.88;74.50;99196.05;108432;1271;22548;-80
2022/06/15 04:52:34;;;;;;;20.70;10.40;;;;;;;14.32;74.04;99192.09;108476;1270;25248;-80
2022/06/15 04:55:02;;;;;;;15.50;8.20;;;;;;;14.72;73.16;99193.25;108509;1271;25366;-79
2022/06/15 04:57:29;;;;;;;13.80;8.10;;;;;;;15.06;71.92;99193.67;108306;1271;22539;-80
2022/06/15 04:59:56;;;;;;;14.30;8.50;;;;;;;15.35;70.40;99198.87;108484;1270;22552;-80
2022/06/15 05:02:23;;;;;;;15.10;9.10;;;;;;;15.66;69.37;99194.58;108469;1271;22618;-80
2022/06/15 05:04:50;;;;;;;14.20;8.60;;;;;;;16.04;68.81;99194.08;108463;1271;22533;-80
2022/06/15 05:07:17;;;;;;;11.20;7.30;;;;;;;16.37;67.39;99195.77;108462;1271;22521;-80
2022/06/15 05:09:47;;;;;;;14.50;7.40;;;;;;;16.58;65.59;99195.02;108419;1271;22571;-80
2022/06/15 05:12:14;;;;;;;13.60;6.30;;;;;;;16.77;65.01;99194.88;108456;1270;22653;-80
2022/06/15 05:14:41;;;;;;;10.20;6.60;;;;;;;16.99;63.96;99193.59;108446;1271;22541;-80
2022/06/15 05:17:08;;;;;;;10.80;6.80;;;;;;;17.16;63.23;99195.48;108447;1271;22545;-80
2022/06/15 05:19:35;;;;;;;10.60;6.50;;;;;;;17.38;62.77;99200.36;108464;1269;22537;-80
2022/06/15 05:22:02;;;;;;;10.90;6.40;;;;;;;17.57;62.13;99202.38;108424;1271;22565;-81
2022/06/15 05:24:29;;;;;;;10.60;6.10;;;;;;;17.81;61.34;99201.63;108444;1270;22552;-81
2022/06/15 05:26:57;;;;;;;12.50;6.70;;;;;;;18.01;60.34;99198.12;108492;1271;22608;-82
2022/06/15 05:29:25;;;;;;;11.30;6.90;;;;;;;18.16;59.43;99201.16;108569;1271;24360;-82
2022/06/15 05:31:52;;;;;;;12.80;7.10;;;;;;;18.28;58.72;99200.63;108512;1271;22545;-82
2022/06/15 05:34:20;;;;;;;11.50;7.10;;;;;;;18.38;57.49;99197.64;108502;1271;22573;-81
2022/06/15 05:36:48;;;;;;;12.30;6.90;;;;;;;18.41;56.69;99194.77;108538;1271;22547;-83
2022/06/15 05:39:16;;;;;;;13.50;6.50;;;;;;;18.41;55.72;99200.58;108583;1271;22528;-82
2022/06/15 05:41:43;;;;;;;9.20;6.40;;;;;;;18.35;54.81;99206.73;108554;1271;23190;-81
2022/06/15 05:46:39;;;;;;;12.70;6.50;;;;;;;18.25;53.18;99208.71;108486;1271;22554;-82
2022/06/15 05:49:06;;;;;;;17.40;7.20;;;;;;;18.19;52.68;99210.49;108431;1271;25239;-81
2022/06/15 05:51:33;;;;;;;13.70;6.50;;;;;;;18.15;52.13;99214.66;108457;1271;22546;-82
2022/06/15 05:54:00;;;;;;;12.40;6.10;;;;;;;18.13;51.45;99210.48;108508;1271;23037;-80
2022/06/15 05:56:28;;;;;;;13.80;5.60;;;;;;;18.10;51.03;99214.63;108464;1271;22527;-82
2022/06/15 05:58:55;;;;;;;6.90;2.90;;;;;;;18.10;50.75;99218.09;108501;1271;22541;-81
2022/06/15 06:01:28;;;;;;;8.30;3.90;;;;;;;18.13;50.02;99216.27;108539;1271;22585;-82
2022/06/15 06:03:55;;;;;;;7.80;3.00;;;;;;;18.18;49.71;99213.02;108479;1270;22543;-81
2022/06/15 06:06:23;;;;;;;7.70;3.20;;;;;;;18.21;48.88;99211.48;108481;1271;24425;-81
2022/06/15 06:08:50;;;;;;;8.60;4.70;;;;;;;18.23;48.50;99213.96;108624;1271;22560;-81
2022/06/15 06:11:18;;;;;;;11.10;5.40;;;;;;;18.25;48.22;99211.35;108486;1270;24250;-80
2022/06/15 06:13:45;;;;;;;10.70;6.00;;;;;;;18.23;48.04;99213.42;108457;1271;23401;-81
2022/06/15 06:16:12;;;;;;;12.30;5.70;;;;;;;18.26;47.35;99216.72;108466;1271;22522;-82
2022/06/15 06:18:39;;;;;;;11.40;4.90;;;;;;;18.24;47.31;99215.11;108481;1271;26147;-82
2022/06/15 06:21:06;;;;;;;9.00;4.30;;;;;;;18.22;47.16;99210.35;108365;1271;22543;-81
2022/06/15 06:23:34;;;;;;;8.80;4.10;;;;;;;18.26;46.48;99214.20;108457;1271;25357;-80
2022/06/15 06:26:02;;;;;;;11.40;4.10;;;;;;;18.27;46.52;99215.59;108495;1270;22541;-82
2022/06/15 06:28:32;;;;;;;11.20;4.50;;;;;;;18.29;45.82;99214.10;108513;1271;22540;-83
2022/06/15 06:31:03;;;;;;;11.60;6.00;;;;;;;18.32;46.20;99215.48;108513;1271;23252;-81
2022/06/15 06:33:32;;;;;;;13.40;6.10;;;;;;;18.34;46.87;99221.60;108359;1271;22627;-80
2022/06/15 06:36:07;;;;;;;10.10;5.30;;;;;;;18.36;47.11;99221.43;108499;1270;25351;-80
2022/06/15 06:38:35;;;;;;;14.10;5.40;;;;;;;18.34;46.78;99223.74;108506;1271;22522;-81
2022/06/15 06:41:04;;;;;;;11.70;4.90;;;;;;;18.30;46.41;99222.31;108464;1270;22604;-80
2022/06/15 06:43:31;;;;;;;10.80;4.90;;;;;;;18.25;46.09;99229.50;108507;1270;22559;-81
2022/06/15 06:45:58;;;;;;;11.20;4.90;;;;;;;18.26;46.56;99230.95;108468;1271;24131;-80
2022/06/15 06:48:26;;;;;;;9.10;4.20;;;;;;;18.33;46.49;99225.75;108491;1271;22548;-76
2022/06/15 06:50:53;;;;;;;10.90;4.00;;;;;;;18.36;46.65;99226.77;108480;1271;22647;-80
2022/06/15 06:53:20;;;;;;;10.10;4.00;;;;;;;18.37;46.36;99230.16;108522;1271;22714;-81
2022/06/15 06:55:46;;;;;;;10.30;4.20;;;;;;;18.42;46.36;99225.39;108529;1271;22541;-80
2022/06/15 06:58:13;;;;;;;9.60;3.90;;;;;;;18.48;46.10;99227.33;108531;1271;22541;-80
2022/06/15 07:00:40;;;;;;;11.00;4.50;;;;;;;18.53;45.98;99223.11;108486;1271;22656;-84
2022/06/15 07:03:09;;;;;;;12.40;4.80;;;;;;;18.58;45.99;99222.37;108511;1270;22708;-82
2022/06/15 07:05:36;;;;;;;9.60;4.50;;;;;;;18.57;45.46;99219.96;108510;1270;22600;-80
2022/06/15 07:08:04;;;;;;;10.40;4.20;;;;;;;18.56;45.29;99222.48;108773;1270;24032;-80
2022/06/15 07:10:31;;;;;;;11.30;4.40;;;;;;;18.61;45.17;99223.17;108508;1271;22541;-80
2022/06/15 07:12:58;;;;;;;12.00;4.30;;;;;;;18.62;45.58;99221.09;108431;1270;24225;-80
2022/06/15 07:15:25;;;;;;;10.10;4.50;;;;;;;18.61;45.18;99219.82;108587;1271;22532;-78
2022/06/15 07:17:54;;;;;;;10.80;3.90;;;;;;;18.65;45.12;99218.03;108676;1271;22543;-80
2022/06/15 07:20:21;;;;;;;9.20;3.90;;;;;;;18.76;45.35;99219.21;108681;1271;22554;-83
2022/06/15 07:22:48;;;;;;;8.10;3.70;;;;;;;18.81;44.70;99215.16;108695;1269;22671;-83
2022/06/15 07:25:15;;;;;;;9.30;4.00;;;;;;;18.80;44.34;99214.92;108679;1271;23129;-82
2022/06/15 07:27:44;;;;;;;6.40;3.00;;;;;;;18.81;43.99;99215.91;108724;1271;25476;-82
2022/06/15 07:30:16;;;;;;;8.00;3.40;;;;;;;18.76;43.82;99215.86;108695;1271;22688;-82
2022/06/15 07:32:44;;;;;;;7.60;3.50;;;;;;;18.77;43.90;99214.86;108732;1271;22546;-82
2022/06/15 07:35:22;;;;;;;7.80;3.30;;;;;;;18.82;43.44;99217.52;108710;1271;22615;-83
2022/06/15 07:37:51;;;;;;;12.30;3.70;;;;;;;18.88;43.58;99213.83;108733;1271;23266;-82
2022/06/15 07:40:20;;;;;;;7.80;2.70;;;;;;;18.97;43.70;99216.34;108789;1271;22578;-83
2022/06/15 07:42:49;;;;;;;7.60;2.90;;;;;;;18.96;43.71;99215.17;108831;1271;22541;-83
2022/06/15 07:45:18;;;;;;;8.40;2.90;;;;;;;18.99;43.36;99216.20;108805;1271;22574;-82
2022/06/15 07:50:36;;;;;;;8.90;2.50;;;;;;;19.05;43.37;99218.64;108623;1271;25270;-82
2022/06/15 07:53:05;;;;;;;9.50;2.90;;;;;;;19.12;43.44;99219.80;108830;1271;22537;-82
2022/06/15 07:55:37;;;;;;;6.00;2.30;;;;;;;19.22;43.10;99219.39;108808;1269;22752;-82
2022/06/15 07:58:05;;;;;;;5.10;2.00;;;;;;;19.31;43.01;99218.90;108749;1271;22513;-83
2022/06/15 08:00:34;;;;;;;6.70;2.00;;;;;;;19.43;43.02;99219.92;108682;1271;22540;-81
2022/06/15 08:03:03;;;;;;;4.20;1.60;;;;;;;19.50;42.97;99218.55;108693;1271;22553;-81
2022/06/15 08:05:36;;;;;;;8.80;2.00;;;;;;;19.59;43.14;99220.80;108688;1271;22451;-81
2022/06/15 08:08:06;;;;;;;7.00;2.00;;;;;;;19.67;43.41;99220.34;108746;1271;22572;-81
2022/06/15 08:10:34;;;;;;;4.60;1.70;;;;;;;19.69;42.53;99214.52;108804;1271;22636;-82
2022/06/15 08:13:01;;;;;;;4.90;1.70;;;;;;;19.73;42.81;99213.94;108766;1271;22552;-82
2022/06/15 08:15:28;;;;;;;5.00;1.80;;;;;;;19.75;42.00;99217.09;108734;1271;22794;-82
2022/06/15 08:18:00;;;;;;;10.10;1.70;;;;;;;19.80;41.97;99217.14;108747;1271;25544;-84
2022/06/15 08:20:35;;;;;;;4.80;1.70;;;;;;;19.81;41.83;99215.27;108781;1271;22599;-82
2022/06/15 08:23:09;;;;;;;6.00;2.30;;;;;;;19.87;41.85;99217.95;108621;1271;22574;-84
2022/06/15 08:25:41;;;;;;;6.30;1.90;;;;;;;19.88;41.70;99217.17;108731;1271;22564;-84
2022/06/15 08:28:10;;;;;;;7.00;2.20;;;;;;;19.88;41.53;99211.31;108786;1270;22536;-84
2022/06/15 08:30:38;;;;;;;5.00;2.40;;;;;;;19.91;41.58;99209.45;108746;1271;22581;-82
2022/06/15 08:33:08;;;;;;;8.60;1.90;;;;;;;19.92;41.50;99206.71;108855;1271;22546;-83
2022/06/15 08:35:36;;;;;;;7.50;2.00;;;;;;;19.96;41.38;99209.48;108812;1271;22544;-83
2022/06/15 08:38:06;;;;;;;6.00;1.90;;;;;;;19.99;40.79;99211.81;108794;1271;22553;-83
2022/06/15 08:40:44;;;;;;;5.10;2.10;;;;;;;20.03;41.05;99215.41;108816;1271;22604;-84
2022/06/15 08:43:36;;;;;;;7.50;2.40;;;;;;;20.06;41.05;99213.84;108838;1271;22583;-81
2022/06/15 08:46:25;;;;;;;8.80;2.10;;;;;;;20.06;40.68;99211.19;108853;1271;22574;-81
2022/06/15 08:49:07;;;;;;;5.70;2.60;;;;;;;20.05;40.66;99208.09;108802;1270;22652;-83
2022/06/15 08:51:39;;;;;;;8.00;2.10;;;;;;;20.10;41.06;99208.28;108736;1270;22598;-83
2022/06/15 08:54:10;;;;;;;7.00;2.20;;;;;;;20.19;41.15;99207.99;108730;1271;22547;-83
2022/06/15 08:56:44;;;;;;;5.40;2.30;;;;;;;20.28;41.19;99203.23;108751;1271;22552;-84
2022/06/15 08:59:32;;;;;;;7.80;2.00;;;;;;;20.34;40.53;99204.64;108734;1271;22571;-84
2022/06/15 09:01:59;;;;;;;5.00;1.90;;;;;;;20.37;40.85;99203.95;108751;1271;22613;-83
2022/06/15 09:05:24;;;;;;;6.30;2.30;;;;;;;20.44;40.93;99206.80;108754;1271;22612;-83
2022/06/15 09:07:54;;;;;;;7.00;2.80;;;;;;;20.56;40.46;99207.91;108259;1279;24263;-82
2022/06/15 09:10:44;;;;;;;6.10;2.30;;;;;;;20.57;40.01;99203.23;108259;1280;22540;-83
2022/06/15 09:13:36;;;;;;;4.00;2.00;;;;;;;20.60;40.84;99205.75;108255;1279;24329;-83
2022/06/15 09:16:15;;;;;;;5.40;2.30;;;;;;;20.64;40.32;99203.12;108278;1280;25546;-83
2022/06/15 09:18:45;;;;;;;6.50;2.10;;;;;;;20.66;40.58;99203.06;108269;1279;22800;-82
2022/06/15 09:21:34;;;;;;;7.60;2.90;;;;;;;20.70;40.05;99201.64;108277;1280;26902;-81
2022/06/15 09:24:20;;;;;;;5.60;2.40;;;;;;;20.73;39.95;99202.41;107950;1280;431223;-82
2022/06/15 09:26:56;;;;;;;5.60;2.00;;;;;;;20.82;39.65;99199.24;108280;1279;22557;-82
2022/06/15 09:29:31;;;;;;;7.50;2.10;;;;;;;20.87;39.48;99202.08;108277;1280;22536;-82
2022/06/15 09:32:05;;;;;;;3.70;1.50;;;;;;;20.95;40.16;99199.51;108252;1279;22531;-82
2022/06/15 09:34:41;;;;;;;6.90;2.10;;;;;;;21.08;40.21;99201.38;108259;1280;22651;-82
2022/06/15 09:37:13;;;;;;;5.00;1.90;;;;;;;21.18;39.83;99202.69;108206;1281;24321;-82
2022/06/15 09:39:41;;;;;;;;;;;;;;;21.27;39.55;99200.89;108286;1280;22529;-83
2022/06/15 09:42:08;;;;;;;14.00;6.70;;;;;;;21.27;39.46;99202.89;108481;1271;22578;-82
2022/06/15 09:44:53;;;;;;;21.80;4.60;;;;;;;21.33;39.45;99206.84;108621;1271;22560;-82
2022/06/15 09:47:26;;;;;;;9.40;3.40;;;;;;;21.42;39.67;99205.48;108645;1271;22564;-83
2022/06/15 09:50:20;;;;;;;7.30;2.30;;;;;;;21.50;39.40;99204.31;108646;1271;25245;-83
2022/06/15 09:53:18;;;;;;;6.30;2.00;;;;;;;21.53;39.65;99201.17;108646;1270;22613;-83
2022/06/15 09:55:47;;;;;;;8.30;2.40;;;;;;;21.58;39.22;99203.93;108649;1271;22546;-83
2022/06/15 09:58:18;;;;;;;4.70;2.20;;;;;;;21.64;39.12;99200.13;108616;1271;25364;-83
2022/06/15 10:00:47;;;;;;;7.00;2.80;;;;;;;21.69;38.55;99196.13;108631;1271;22541;-83
2022/06/15 10:03:41;;;;;;;6.70;2.90;;;;;;;21.73;37.94;99196.27;108632;1271;22521;-83
2022/06/15 10:06:43;;;;;;;5.10;2.30;;;;;;;21.73;38.38;99188.12;108676;1271;22611;-83
2022/06/15 10:09:15;;;;;;;5.80;2.50;;;;;;;21.75;38.91;99184.83;108682;1271;24211;-83
2022/06/15 10:15:15;;;;;;;7.10;2.90;;;;;;;21.83;38.45;99177.24;108266;1280;22587;-83
2022/06/15 10:17:49;;;;;;;4.30;2.20;;;;;;;21.87;38.48;99171.35;108242;1280;22597;-83
2022/06/15 10:20:37;;;;;;;6.10;2.50;;;;;;;22.01;38.95;99170.48;108274;1281;22542;-83
2022/06/15 10:23:22;;;;;;;16.60;2.20;;;;;;;22.20;38.66;99166.77;108293;1281;22935;-83
2022/06/15 10:25:56;;;;;;;6.30;2.50;;;;;;;22.23;38.68;99162.16;108246;1280;24247;-83
2022/06/15 10:28:33;;;;;;;8.30;2.20;;;;;;;22.36;38.65;99157.55;108298;1281;22565;-83
2022/06/15 10:31:13;;;;;;;7.00;2.20;;;;;;;22.39;37.80;99155.29;108279;1280;22545;-83
2022/06/15 10:33:45;;;;;;;6.60;2.00;;;;;;;22.46;38.48;99151.49;108294;1281;24316;-84
2022/06/15 10:36:38;;;;;;;7.80;2.70;;;;;;;22.64;38.85;99155.06;108279;1280;22559;-83
2022/06/15 10:39:27;;;;;;;5.90;2.60;;;;;;;22.71;38.49;99159.30;108204;1279;24272;-83
2022/06/15 10:42:24;;;;;;;10.00;4.00;;;;;;;22.66;37.98;99154.33;108264;1280;22581;-83
2022/06/15 10:44:56;;;;;;;10.70;4.00;;;;;;;22.68;38.09;99155.56;108268;1280;22507;-83
2022/06/15 10:47:35;;;;;;;10.10;3.30;;;;;;;22.65;37.75;99157.64;108259;1281;22533;-83
2022/06/15 10:50:08;;;;;;;6.90;2.60;;;;;;;22.67;38.33;99150.57;108270;1279;22541;-83
2022/06/15 10:52:44;;;;;;;7.00;2.40;;;;;;;22.80;38.44;99150.73;108628;1271;22718;-83
2022/06/15 11:04:24;;;;;;;5.90;1.80;;;;;;;22.62;37.20;99144.14;108727;1271;22549;-83
2022/06/15 11:07:00;;;;;;;4.90;1.90;;;;;;;22.52;36.89;99140.46;108690;1271;22581;-83
2022/06/15 11:09:41;;;;;;;5.30;2.10;;;;;;;22.55;37.21;99136.98;108665;1269;22567;-85
2022/06/15 11:12:30;;;;;;;5.30;1.80;;;;;;;22.51;37.66;99136.77;108677;1271;22557;-84
2022/06/15 11:15:02;;;;;;;4.60;1.90;;;;;;;22.50;37.26;99136.23;108705;1271;24967;-86
2022/06/15 11:20:33;;;;;;;5.80;1.70;;;;;;;22.41;36.90;99135.38;108674;1271;22554;-85
2022/06/15 11:23:39;;;;;;;6.80;2.40;;;;;;;22.29;36.01;99132.79;108706;1270;22616;-83
2022/06/15 11:28:58;;;;;;;3.90;1.70;;;;;;;22.25;36.21;99123.92;108258;1280;22880;-83
2022/06/15 11:31:28;;;;;;;5.90;2.20;;;;;;;22.34;36.09;99123.95;108262;1281;22557;-83
2022/06/15 11:34:02;;;;;;;6.00;2.00;;;;;;;22.45;36.66;99121.80;108285;1280;27006;-83
2022/06/15 11:36:50;;;;;;;4.10;1.90;;;;;;;22.50;36.90;99120.76;108247;1280;22607;-83
2022/06/15 11:39:33;;;;;;;4.10;1.90;;;;;;;22.55;37.70;99122.13;108244;1281;22583;-82
2022/06/15 11:42:00;;;;;;;7.50;2.00;;;;;;;22.68;37.78;99123.08;108223;1281;22543;-82
2022/06/15 11:44:31;;;;;;;8.00;2.00;;;;;;;22.78;36.69;99127.34;108263;1281;22534;-82
2022/06/15 11:47:07;;;;;;;6.90;2.40;;;;;;;22.86;36.82;99126.86;108246;1280;22533;-82
2022/06/15 11:49:34;;;;;;;5.30;2.10;;;;;;;22.96;37.06;99127.92;108279;1281;22647;-82
2022/06/15 11:52:23;;;;;;;6.10;1.80;;;;;;;22.98;36.13;99126.57;108304;1281;22524;-83
2022/06/15 11:55:27;;;;;;;4.90;2.00;;;;;;;23.07;37.09;99126.29;108273;1281;22572;-83
2022/06/15 11:58:31;;;;;;;6.00;2.20;;;;;;;23.01;36.64;99125.89;108264;1280;22614;-82
2022/06/15 12:01:35;;;;;;;7.50;2.00;;;;;;;23.00;36.55;99120.34;108259;1281;22558;-83
2022/06/15 12:04:34;;;;;;;6.50;2.00;;;;;;;22.96;35.98;99118.88;108598;1271;25403;-82
2022/06/15 12:07:05;;;;;;;6.40;1.90;;;;;;;23.01;36.50;99115.59;108234;1281;22553;-83
2022/06/15 12:09:35;;;;;;;5.80;1.90;;;;;;;23.01;36.93;99114.33;108251;1281;22543;-82
2022/06/15 12:15:13;;;;;;;5.70;2.50;;;;;;;23.11;36.73;99115.56;108227;1280;23343;-83
2022/06/15 12:17:58;;;;;;;7.00;2.80;;;;;;;23.32;36.28;99111.88;108215;1281;22729;-85